Aviation Digital Data Service (ADDS)

Output produced by METARs form (0747 UTC 25 April 2014)
found at http://aviationweather.gov/adds/metars/
 
KPNE 250535Z 2506/2606 VRB03KT P6SM BKN250 
     FM251400 15008KT P6SM BKN250 
     FM260000 15010KT P6SM BKN050 OVC100 
     FM260200 15010KT P6SM -SHRA OVC025 
     FM260300 12009KT 5SM -SHRA BR OVC015 
     FM260500 09008KT 4SM -SHRA BR OVC007